Time;durP1;ratioP1;P1;durP2;ratioP2;P2;SDS_P1;SDS_P2;PMS_P1;PMS_P2;Temp;Humidity;BMP_temperature;BMP_pressure;BME280_temperature;BME280_humidity;BME280_pressure;Samples;Min_cycle;Max_cycle;Signal;HPM_P1;HPM_P2
2022/01/27 00:04:18;;;;;;;69.13;27.23;;;;;;;2.14;85.23;102674.13;5023682;28;20037;-75
2022/01/27 00:06:39;;;;;;;74.00;29.40;;;;;;;2.05;86.14;102671.91;5020631;28;20041;-75
2022/01/27 00:09:20;;;;;;;75.20;29.83;;;;;;;2.06;85.89;102676.13;5008343;28;20268;-75
2022/01/27 00:11:47;;;;;;;74.32;28.45;;;;;;;2.07;86.08;102672.72;5022012;28;20125;-74
2022/01/27 00:14:15;;;;;;;73.93;29.48;;;;;;;2.13;85.95;102677.59;5025522;28;20112;-75
2022/01/27 00:16:51;;;;;;;75.93;28.70;;;;;;;2.12;85.88;102680.19;5026105;28;20499;-75
2022/01/27 00:19:16;;;;;;;72.70;28.88;;;;;;;2.20;85.63;102667.94;5025710;28;20033;-75
2022/01/27 00:21:42;;;;;;;69.20;28.13;;;;;;;2.11;85.54;102668.28;5010134;28;20095;-75
2022/01/27 00:24:07;;;;;;;72.15;28.38;;;;;;;2.03;85.87;102658.31;5028473;28;20036;-75
2022/01/27 00:26:33;;;;;;;73.35;29.92;;;;;;;2.13;85.65;102658.84;5024275;28;20503;-75
2022/01/27 00:28:58;;;;;;;71.90;28.55;;;;;;;2.11;85.71;102652.94;5025703;28;20052;-74
2022/01/27 00:31:24;;;;;;;79.05;29.40;;;;;;;2.11;86.07;102638.44;5022732;28;20025;-75
2022/01/27 00:33:51;;;;;;;78.22;29.27;;;;;;;2.01;86.01;102649.03;5010664;28;20041;-75
2022/01/27 00:36:17;;;;;;;82.40;29.55;;;;;;;2.14;86.20;102624.66;5024537;28;20163;-75
2022/01/27 00:38:42;;;;;;;75.55;28.70;;;;;;;2.06;86.19;102617.28;5026243;28;20045;-75
2022/01/27 00:41:08;;;;;;;72.05;27.35;;;;;;;2.07;85.71;102608.72;5025251;28;20163;-75
2022/01/27 00:43:34;;;;;;;67.07;27.65;;;;;;;1.97;86.79;102598.88;5028061;28;20396;-75
2022/01/27 00:46:00;;;;;;;83.05;29.15;;;;;;;2.06;86.38;102591.69;5022696;28;20037;-75
2022/01/27 00:48:25;;;;;;;75.72;29.98;;;;;;;2.12;86.06;102594.00;5004441;28;20035;-74
2022/01/27 00:51:00;;;;;;;75.22;28.25;;;;;;;2.15;85.80;102582.84;5017164;28;20037;-75
2022/01/27 00:55:51;;;;;;;84.25;29.13;;;;;;;2.06;86.02;102571.22;5020869;28;20033;-75
2022/01/27 01:01:06;;;;;;;78.70;28.40;;;;;;;2.04;86.02;102564.50;5043728;28;20483;-75
2022/01/27 01:03:36;;;;;;;83.53;30.90;;;;;;;2.01;86.50;102560.31;5027903;28;20037;-75
2022/01/27 01:32:59;;;;;;;72.95;27.60;;;;;;;1.94;86.90;102552.03;5026548;28;20029;-75
2022/01/27 01:35:07;;;;;;;72.13;26.73;;;;;;;1.91;86.90;102556.44;5019737;28;20060;-75
2022/01/27 01:37:37;;;;;;;80.35;27.45;;;;;;;1.90;87.20;102559.88;5026812;28;20033;-75
2022/01/27 01:40:06;;;;;;;71.97;27.27;;;;;;;1.99;86.73;102551.03;5025700;28;20073;-75
2022/01/27 01:42:31;;;;;;;78.13;26.83;;;;;;;2.00;87.66;102547.56;5024684;28;20048;-75
2022/01/27 01:45:03;;;;;;;77.05;25.30;;;;;;;1.95;87.48;102568.22;5025705;28;20041;-74
2022/01/27 01:47:28;;;;;;;69.32;25.50;;;;;;;2.03;86.91;102555.13;5042295;28;20384;-75
2022/01/27 01:49:54;;;;;;;70.93;25.35;;;;;;;1.92;87.48;102548.72;5025449;28;20036;-75
2022/01/27 01:52:19;;;;;;;70.60;26.80;;;;;;;1.91;87.58;102554.69;5027046;28;20487;-75
2022/01/27 01:54:45;;;;;;;71.60;24.95;;;;;;;2.02;87.33;102546.63;5015156;28;20408;-75
2022/01/27 01:57:10;;;;;;;70.75;24.90;;;;;;;2.17;87.11;102540.09;5022348;28;20466;-75
2022/01/27 01:59:37;;;;;;;72.60;25.23;;;;;;;2.01;87.36;102533.88;5005640;28;20033;-75
2022/01/27 02:02:03;;;;;;;70.03;25.05;;;;;;;2.06;87.46;102524.31;5021609;28;20847;-75
2022/01/27 02:04:28;;;;;;;64.28;23.17;;;;;;;2.07;87.18;102521.72;5026661;28;20044;-75
2022/01/27 02:06:58;;;;;;;65.20;24.77;;;;;;;2.02;87.35;102526.16;5022429;28;20498;-74
2022/01/27 02:20:11;;;;;;;67.68;25.20;;;;;;;2.04;87.54;102488.53;5021285;28;20436;-75
2022/01/27 02:22:39;;;;;;;63.05;23.42;;;;;;;2.12;87.23;102475.44;5007961;28;20575;-75
2022/01/27 02:25:06;;;;;;;63.30;26.38;;;;;;;2.15;87.25;102490.69;5025455;28;20548;-75
2022/01/27 02:27:32;;;;;;;64.13;25.42;;;;;;;2.10;87.52;102497.72;5017802;28;20440;-75
2022/01/27 02:29:58;;;;;;;69.25;25.10;;;;;;;2.23;87.19;102500.63;5021391;28;20465;-74
2022/01/27 02:32:24;;;;;;;66.35;27.10;;;;;;;2.21;87.26;102494.75;5024992;28;20064;-77
2022/01/27 02:34:50;;;;;;;61.70;24.23;;;;;;;2.12;87.57;102488.25;5006966;28;20235;-75
2022/01/27 02:37:16;;;;;;;65.20;24.60;;;;;;;2.12;87.75;102467.78;5024998;28;20073;-75
2022/01/27 02:39:42;;;;;;;59.45;24.27;;;;;;;2.05;88.08;102469.72;5025130;28;20056;-75
2022/01/27 02:42:19;;;;;;;69.93;25.67;;;;;;;2.17;87.66;102472.69;5020460;28;20034;-75
2022/01/27 02:44:56;;;;;;;65.63;24.60;;;;;;;2.16;88.22;102477.00;5021450;28;20037;-75
2022/01/27 02:47:23;;;;;;;61.58;24.55;;;;;;;2.16;87.54;102483.84;5019904;28;20033;-75
2022/01/27 02:49:49;;;;;;;71.20;25.25;;;;;;;2.09;87.82;102478.13;5022247;28;20452;-75
2022/01/27 02:52:15;;;;;;;69.80;25.30;;;;;;;2.12;87.88;102471.16;5027356;28;20029;-75
2022/01/27 02:54:41;;;;;;;60.28;25.23;;;;;;;2.08;88.11;102481.59;5022150;28;20040;-75
2022/01/27 02:57:07;;;;;;;65.22;24.02;;;;;;;2.18;87.89;102466.69;5025617;28;20029;-75
2022/01/27 02:59:33;;;;;;;62.95;23.80;;;;;;;2.16;88.33;102473.59;5022031;28;20038;-75
2022/01/27 03:01:59;;;;;;;65.18;24.13;;;;;;;2.11;88.19;102464.38;5020855;28;20091;-75
2022/01/27 03:04:26;;;;;;;58.25;23.05;;;;;;;2.09;88.33;102457.63;5024458;28;20128;-75
2022/01/27 03:06:52;;;;;;;69.53;23.58;;;;;;;2.22;87.82;102451.13;5021342;28;20499;-75
2022/01/27 03:09:18;;;;;;;62.47;23.27;;;;;;;2.26;87.68;102446.72;5026923;28;20025;-75
2022/01/27 03:11:48;;;;;;;65.90;25.13;;;;;;;2.18;88.25;102448.78;5028408;28;20030;-75
2022/01/27 03:14:16;;;;;;;62.95;23.65;;;;;;;2.26;87.83;102439.06;5023669;28;20061;-75
2022/01/27 03:16:43;;;;;;;66.85;25.88;;;;;;;2.23;87.59;102442.59;5024670;28;20071;-75
2022/01/27 03:19:09;;;;;;;60.28;25.02;;;;;;;2.30;87.58;102423.53;5028045;28;20579;-74
2022/01/27 03:21:35;;;;;;;58.10;22.83;;;;;;;2.26;87.79;102439.91;5030542;28;20112;-75
2022/01/27 03:24:00;;;;;;;62.08;24.52;;;;;;;2.39;87.22;102427.41;5027433;28;20481;-75
2022/01/27 03:26:27;;;;;;;57.72;24.20;;;;;;;2.25;87.74;102430.53;5029569;28;20515;-75
2022/01/27 03:28:52;;;;;;;59.72;23.38;;;;;;;2.36;87.68;102422.44;5024179;28;20038;-75
2022/01/27 03:31:18;;;;;;;57.22;21.90;;;;;;;2.40;87.29;102408.63;5027493;28;20468;-74
2022/01/27 03:33:44;;;;;;;62.88;23.00;;;;;;;2.37;87.11;102416.41;5023845;28;20558;-76
2022/01/27 03:36:10;;;;;;;63.15;22.55;;;;;;;2.43;87.41;102413.63;5025224;28;20466;-75
2022/01/27 03:38:35;;;;;;;67.70;24.45;;;;;;;2.32;87.78;102414.06;5028746;28;20160;-75
2022/01/27 03:41:06;;;;;;;59.63;23.08;;;;;;;2.34;87.59;102411.44;5006742;28;20037;-75
2022/01/27 03:43:31;;;;;;;63.20;24.15;;;;;;;2.35;87.75;102402.84;5027961;28;20534;-75
2022/01/27 03:45:57;;;;;;;57.88;22.65;;;;;;;2.33;87.64;102405.47;5029191;28;20037;-75
2022/01/27 03:48:22;;;;;;;64.93;24.80;;;;;;;2.36;88.42;102408.81;5019507;28;20033;-75
2022/01/27 03:50:47;;;;;;;60.25;23.15;;;;;;;2.39;87.90;102408.66;5025911;28;20037;-75
2022/01/27 03:53:14;;;;;;;72.22;27.15;;;;;;;2.27;88.27;102413.41;5018922;28;20038;-75
2022/01/27 03:55:41;;;;;;;59.17;22.95;;;;;;;2.28;88.78;102406.53;5020266;28;20511;-75
2022/01/27 03:58:07;;;;;;;64.25;25.73;;;;;;;2.39;88.05;102404.38;5005153;28;20073;-75
2022/01/27 04:00:33;;;;;;;72.93;25.77;;;;;;;2.41;88.18;102405.16;5031850;28;20045;-76
2022/01/27 04:03:10;;;;;;;63.47;22.67;;;;;;;2.34;88.20;102394.34;5027844;28;20131;-75
2022/01/27 04:05:40;;;;;;;74.10;25.70;;;;;;;2.47;87.86;102392.09;5024574;28;20491;-75
2022/01/27 04:08:08;;;;;;;61.60;22.50;;;;;;;2.38;88.08;102387.38;5028417;28;20041;-75
2022/01/27 04:10:34;;;;;;;68.18;25.45;;;;;;;2.34;88.39;102371.28;5028818;28;20038;-75
2022/01/27 04:13:00;;;;;;;61.58;24.90;;;;;;;2.43;88.17;102367.53;5014073;28;20029;-75
2022/01/27 04:15:25;;;;;;;65.63;23.13;;;;;;;2.36;88.64;102368.66;5021670;28;20476;-75
2022/01/27 04:17:51;;;;;;;60.58;23.73;;;;;;;2.30;89.12;102371.50;5015004;28;20030;-75
2022/01/27 04:20:17;;;;;;;61.97;23.65;;;;;;;2.39;88.58;102372.81;5028912;28;20104;-75
2022/01/27 04:22:43;;;;;;;62.90;22.80;;;;;;;2.44;88.39;102369.16;5026510;28;20554;-75
2022/01/27 04:25:09;;;;;;;65.40;25.83;;;;;;;2.52;88.66;102371.41;5026549;28;20436;-75
2022/01/27 04:27:38;;;;;;;68.60;25.25;;;;;;;2.47;88.32;102379.28;5022975;28;20392;-75
2022/01/27 04:30:07;;;;;;;108.00;39.65;;;;;;;2.49;88.61;102379.25;5016574;28;20042;-75
2022/01/27 04:32:41;;;;;;;96.32;37.53;;;;;;;2.44;88.72;102370.91;5023177;28;20038;-75
2022/01/27 04:35:10;;;;;;;68.97;24.92;;;;;;;2.57;88.41;102371.22;5023817;28;20045;-75
2022/01/27 04:37:40;;;;;;;71.53;27.05;;;;;;;2.58;88.67;102355.81;5025798;28;20199;-75
2022/01/27 04:40:08;;;;;;;54.25;20.80;;;;;;;2.63;88.25;102356.41;5011320;28;20065;-75
2022/01/27 04:42:48;;;;;;;68.25;28.58;;;;;;;2.58;88.55;102357.50;5026321;28;20041;-75
2022/01/27 04:45:15;;;;;;;65.10;25.20;;;;;;;2.56;88.63;102357.56;5026451;28;20025;-75
2022/01/27 04:47:46;;;;;;;61.15;23.15;;;;;;;2.65;88.50;102353.78;5022066;28;20037;-75
2022/01/27 04:50:12;;;;;;;59.65;23.33;;;;;;;2.64;88.48;102329.09;5027071;28;20116;-75
2022/01/27 04:52:42;;;;;;;53.55;21.90;;;;;;;2.66;88.46;102327.28;5021933;28;20095;-75
2022/01/27 04:55:11;;;;;;;54.25;21.88;;;;;;;2.79;88.40;102319.88;5044265;28;20361;-75
2022/01/27 04:57:39;;;;;;;54.05;21.77;;;;;;;2.73;87.78;102297.91;5017783;28;20396;-74
2022/01/27 05:00:07;;;;;;;48.90;20.27;;;;;;;2.72;88.25;102309.06;5027339;28;20518;-75
2022/01/27 05:02:41;;;;;;;55.80;21.83;;;;;;;2.66;88.67;102299.13;5025854;28;20124;-75
2022/01/27 05:05:07;;;;;;;52.28;20.48;;;;;;;2.68;88.56;102284.50;5024819;28;20064;-75
2022/01/27 05:07:33;;;;;;;58.78;22.23;;;;;;;2.86;88.65;102296.50;5027753;28;20061;-76
2022/01/27 05:10:07;;;;;;;54.42;21.10;;;;;;;2.79;88.49;102295.09;5023439;28;20286;-75
2022/01/27 05:12:53;;;;;;;59.08;21.55;;;;;;;2.72;88.99;102296.28;5026437;28;20079;-75
2022/01/27 05:15:19;;;;;;;62.53;22.67;;;;;;;2.63;89.24;102299.25;5018757;28;20127;-76
2022/01/27 05:17:44;;;;;;;59.67;23.98;;;;;;;2.81;88.83;102298.41;5022426;28;20037;-74
2022/01/27 05:20:10;;;;;;;51.40;21.00;;;;;;;2.87;89.06;102280.19;5025551;28;20045;-74
2022/01/27 05:22:36;;;;;;;55.13;21.63;;;;;;;2.90;88.54;102271.53;5022372;28;20041;-74
2022/01/27 05:25:02;;;;;;;54.83;20.88;;;;;;;2.80;88.67;102283.13;5026804;28;20071;-74
2022/01/27 05:27:28;;;;;;;61.03;20.20;;;;;;;2.88;89.07;102273.34;5024651;28;20036;-74
2022/01/27 05:29:53;;;;;;;52.22;20.70;;;;;;;3.04;88.54;102263.22;5024187;28;20396;-74
2022/01/27 05:32:19;;;;;;;54.08;19.65;;;;;;;2.86;88.82;102270.88;5021659;28;20108;-74
2022/01/27 05:34:45;;;;;;;50.00;19.80;;;;;;;2.82;89.32;102268.50;5022098;28;20479;-74
2022/01/27 05:37:10;;;;;;;49.75;19.45;;;;;;;2.99;89.18;102258.31;5024260;28;20033;-73
2022/01/27 05:39:36;;;;;;;53.20;20.23;;;;;;;2.98;88.83;102271.22;5025887;28;20422;-74
2022/01/27 05:42:02;;;;;;;46.70;18.83;;;;;;;2.92;89.69;102280.00;5018207;28;20036;-73
2022/01/27 05:44:28;;;;;;;53.88;20.60;;;;;;;3.02;89.44;102257.34;5023629;28;20034;-74
2022/01/27 05:46:53;;;;;;;51.65;20.58;;;;;;;2.92;89.36;102256.94;5026705;28;20171;-73
2022/01/27 05:49:19;;;;;;;51.63;20.38;;;;;;;2.99;89.35;102248.06;5023517;28;20033;-73
2022/01/27 05:51:44;;;;;;;54.47;20.38;;;;;;;3.05;89.58;102241.81;5018266;28;20034;-72
2022/01/27 05:54:10;;;;;;;53.20;19.50;;;;;;;3.25;88.91;102235.75;5027724;28;20029;-73
2022/01/27 05:56:36;;;;;;;54.15;20.60;;;;;;;3.17;89.08;102231.00;5026135;28;20065;-74
2022/01/27 05:59:02;;;;;;;53.80;20.25;;;;;;;3.12;89.12;102238.06;5023705;28;20064;-73
2022/01/27 06:01:28;;;;;;;56.67;21.02;;;;;;;3.19;89.26;102229.19;5019403;28;20037;-73
2022/01/27 06:03:54;;;;;;;51.00;20.25;;;;;;;3.20;89.47;102224.88;5009640;28;20044;-76
2022/01/27 06:06:20;;;;;;;49.95;19.75;;;;;;;3.27;89.21;102216.81;5025474;28;20463;-74
2022/01/27 06:08:45;;;;;;;54.50;19.83;;;;;;;3.28;89.08;102215.09;5024536;28;20040;-73
2022/01/27 06:11:11;;;;;;;55.28;20.13;;;;;;;3.31;89.11;102212.38;5022728;28;20547;-74
2022/01/27 06:13:36;;;;;;;57.72;20.05;;;;;;;3.30;89.18;102208.97;5024561;28;20032;-74
2022/01/27 06:16:08;;;;;;;51.42;18.88;;;;;;;3.27;89.17;102201.44;5021743;28;20399;-73
2022/01/27 06:18:34;;;;;;;53.92;18.98;;;;;;;3.38;88.99;102198.34;5023864;28;20499;-74
2022/01/27 06:21:03;;;;;;;47.50;18.70;;;;;;;3.42;88.76;102199.84;5006667;28;20046;-73
2022/01/27 06:23:29;;;;;;;50.22;18.88;;;;;;;3.37;89.60;102193.28;5006978;28;20041;-74
2022/01/27 06:25:54;;;;;;;47.45;19.02;;;;;;;3.37;89.11;102183.03;5025778;28;20037;-73
2022/01/27 06:28:20;;;;;;;52.80;20.48;;;;;;;3.26;89.50;102173.31;5024266;28;20164;-73
2022/01/27 06:30:45;;;;;;;51.42;20.30;;;;;;;3.43;89.54;102177.63;5026203;28;20044;-74
2022/01/27 06:33:11;;;;;;;51.58;19.40;;;;;;;3.54;88.77;102162.50;5017373;28;20033;-75
2022/01/27 06:35:37;;;;;;;53.00;19.48;;;;;;;3.50;88.50;102159.28;5017032;28;20029;-73
2022/01/27 06:38:04;;;;;;;47.88;18.52;;;;;;;3.51;88.69;102158.38;5021519;28;20548;-72
2022/01/27 06:40:29;;;;;;;48.60;18.50;;;;;;;3.48;88.75;102155.97;5024129;28;20148;-74
2022/01/27 06:42:55;;;;;;;51.72;18.75;;;;;;;3.48;88.99;102148.28;5024652;28;20179;-74
2022/01/27 06:45:20;;;;;;;52.70;19.20;;;;;;;3.36;89.35;102158.31;5019107;28;20409;-73
2022/01/27 06:47:46;;;;;;;48.05;18.30;;;;;;;3.42;89.38;102165.69;5024780;28;20033;-73
2022/01/27 06:50:11;;;;;;;54.72;19.25;;;;;;;3.44;89.23;102166.44;5021819;28;20022;-72
2022/01/27 06:52:37;;;;;;;51.72;19.58;;;;;;;3.45;89.63;102155.28;5019311;28;20403;-72
2022/01/27 06:55:04;;;;;;;50.50;18.50;;;;;;;3.51;89.73;102154.97;5023850;28;20045;-74
2022/01/27 06:57:29;;;;;;;50.13;19.63;;;;;;;3.55;89.59;102153.91;5024582;28;20038;-74
2022/01/27 06:59:55;;;;;;;52.38;20.27;;;;;;;3.62;89.90;102162.16;5022418;28;20040;-73
2022/01/27 07:02:20;;;;;;;57.60;21.15;;;;;;;3.68;89.55;102162.66;5020813;28;20443;-76
2022/01/27 07:04:46;;;;;;;54.67;20.35;;;;;;;3.70;89.24;102150.56;5021087;28;20060;-75
2022/01/27 07:07:12;;;;;;;59.00;21.60;;;;;;;3.78;89.37;102162.19;5021322;28;20037;-73
2022/01/27 07:09:39;;;;;;;53.65;18.73;;;;;;;3.78;89.40;102160.44;5024643;28;20407;-74
2022/01/27 07:12:05;;;;;;;52.25;20.20;;;;;;;3.83;88.84;102162.78;5020132;28;20025;-73
2022/01/27 07:14:33;;;;;;;46.22;18.98;;;;;;;3.81;89.21;102162.03;5025464;28;20049;-73
2022/01/27 07:16:59;;;;;;;57.47;21.00;;;;;;;3.88;88.86;102145.38;5017364;28;20415;-74
2022/01/27 07:19:24;;;;;;;56.97;19.85;;;;;;;3.90;89.26;102152.13;5020339;28;20482;-74
2022/01/27 07:21:50;;;;;;;58.17;21.65;;;;;;;3.88;89.22;102138.53;5009086;28;20033;-73
2022/01/27 07:24:15;;;;;;;54.95;21.17;;;;;;;3.90;89.42;102149.56;5022940;28;20076;-74
2022/01/27 07:26:41;;;;;;;50.95;20.05;;;;;;;3.85;89.87;102143.00;5026145;28;20029;-74
2022/01/27 07:29:06;;;;;;;59.42;21.25;;;;;;;3.92;89.60;102152.03;5021353;28;20038;-74
2022/01/27 07:31:32;;;;;;;51.88;20.40;;;;;;;4.01;89.09;102138.75;5022466;28;20038;-73
2022/01/27 07:33:58;;;;;;;64.85;21.45;;;;;;;3.98;89.50;102141.44;5025815;28;20045;-74
2022/01/27 07:36:24;;;;;;;58.88;21.17;;;;;;;3.99;89.32;102114.03;5025047;28;20040;-75
2022/01/27 07:38:50;;;;;;;59.72;21.02;;;;;;;4.03;89.71;102110.41;5023134;28;20064;-74
2022/01/27 07:41:17;;;;;;;62.85;21.50;;;;;;;4.06;89.74;102108.50;5027092;28;20455;-74
2022/01/27 07:43:43;;;;;;;60.15;22.50;;;;;;;4.05;90.52;102119.69;5024706;28;20025;-74
2022/01/27 07:46:11;;;;;;;55.50;20.95;;;;;;;4.05;90.26;102131.69;5026029;28;20032;-75
2022/01/27 07:48:37;;;;;;;59.22;21.73;;;;;;;4.09;89.85;102143.47;5024678;28;20119;-75
2022/01/27 07:51:03;;;;;;;60.42;23.58;;;;;;;4.09;90.13;102139.16;5030708;28;20361;-77
2022/01/27 07:53:29;;;;;;;60.05;21.95;;;;;;;4.17;89.90;102141.31;5029211;28;20041;-75
2022/01/27 07:55:54;;;;;;;61.17;23.33;;;;;;;4.13;90.35;102128.72;5019510;28;20169;-75
2022/01/27 07:58:20;;;;;;;60.50;22.48;;;;;;;4.04;91.08;102132.59;5018142;28;20025;-75
2022/01/27 08:00:45;;;;;;;57.25;22.98;;;;;;;4.02;91.93;102137.81;5029212;28;20487;-74
2022/01/27 08:03:11;;;;;;;63.53;20.77;;;;;;;4.08;91.13;102136.66;5027147;28;20068;-74
2022/01/27 08:05:37;;;;;;;60.40;22.77;;;;;;;4.13;91.35;102142.38;5015586;28;20037;-75
2022/01/27 08:08:02;;;;;;;67.40;23.08;;;;;;;4.04;91.42;102137.75;5024598;28;20029;-75
2022/01/27 08:10:28;;;;;;;62.38;22.90;;;;;;;4.07;92.23;102135.84;5008138;28;20056;-75
2022/01/27 08:12:53;;;;;;;63.35;22.45;;;;;;;4.02;93.21;102145.50;5027156;28;20037;-74
2022/01/27 08:15:19;;;;;;;64.38;24.15;;;;;;;3.99;94.25;102140.53;5010188;28;20026;-75
2022/01/27 08:17:48;;;;;;;62.63;23.17;;;;;;;3.95;94.95;102146.72;5027031;28;20087;-75
2022/01/27 08:20:14;;;;;;;64.82;23.50;;;;;;;3.82;96.33;102145.72;5024669;28;20025;-74
2022/01/27 08:22:44;;;;;;;82.07;24.70;;;;;;;3.88;96.37;102133.41;5023281;28;20696;-74
2022/01/27 08:25:09;;;;;;;68.22;25.35;;;;;;;3.87;97.25;102142.00;5025591;28;20042;-74
2022/01/27 08:27:37;;;;;;;70.82;24.88;;;;;;;3.85;97.62;102130.16;5025685;28;20030;-74
2022/01/27 08:30:04;;;;;;;64.25;24.45;;;;;;;3.95;98.12;102141.59;5040323;28;20060;-74
2022/01/27 08:32:44;;;;;;;68.07;25.08;;;;;;;3.88;98.80;102150.53;5009018;28;20052;-75
2022/01/27 08:35:12;;;;;;;65.28;25.05;;;;;;;3.82;99.18;102149.09;5026477;28;20040;-76
2022/01/27 08:37:37;;;;;;;69.20;26.75;;;;;;;3.80;99.05;102147.53;5022673;28;20040;-74
2022/01/27 08:40:04;;;;;;;75.35;26.20;;;;;;;3.80;99.73;102156.06;5018228;28;20034;-73
2022/01/27 08:42:30;;;;;;;80.85;27.50;;;;;;;3.83;99.73;102157.66;5017573;28;20073;-75
2022/01/27 08:44:55;;;;;;;69.05;26.00;;;;;;;3.82;99.46;102151.66;5021307;28;20087;-74
2022/01/27 08:47:21;;;;;;;79.78;26.38;;;;;;;3.83;99.93;102150.78;5019697;28;20040;-73
2022/01/27 08:49:47;;;;;;;74.50;24.92;;;;;;;3.81;99.51;102141.50;5010775;28;20044;-75
2022/01/27 08:52:13;;;;;;;76.47;26.42;;;;;;;3.85;100.00;102146.38;5011694;28;20615;-74
2022/01/27 08:54:38;;;;;;;66.88;24.15;;;;;;;3.94;99.40;102139.97;5028960;28;20112;-74
2022/01/27 08:57:04;;;;;;;77.95;26.88;;;;;;;4.03;98.88;102142.06;5025664;28;20036;-76
2022/01/27 08:59:30;;;;;;;85.95;27.90;;;;;;;4.06;98.71;102151.31;5010839;28;20395;-74
2022/01/27 09:01:55;;;;;;;78.35;26.20;;;;;;;4.05;98.32;102140.22;5026210;28;20403;-75
2022/01/27 09:04:21;;;;;;;72.32;26.55;;;;;;;4.09;98.60;102136.59;5023659;28;20045;-74
2022/01/27 09:06:46;;;;;;;75.22;25.50;;;;;;;4.12;99.17;102137.31;5022329;28;20046;-73
2022/01/27 09:09:11;;;;;;;75.00;27.48;;;;;;;4.16;98.99;102139.63;5024392;28;20037;-76
2022/01/27 09:11:37;;;;;;;71.78;26.38;;;;;;;4.23;99.35;102143.53;5008703;28;20204;-76
2022/01/27 09:14:04;;;;;;;74.78;25.10;;;;;;;4.21;99.90;102136.84;5026586;28;20192;-75
2022/01/27 09:16:31;;;;;;;83.75;26.73;;;;;;;4.24;99.75;102132.38;5023276;28;20053;-75
2022/01/27 09:18:58;;;;;;;69.13;26.05;;;;;;;4.14;99.95;102136.31;5021311;28;20621;-75
2022/01/27 09:21:27;;;;;;;72.47;26.70;;;;;;;4.17;100.00;102141.31;5025273;28;20441;-76
2022/01/27 09:23:54;;;;;;;71.22;25.23;;;;;;;4.24;100.00;102137.50;5020857;28;20037;-76
2022/01/27 09:26:38;;;;;;;71.30;25.42;;;;;;;4.24;100.00;102127.25;5038946;28;20459;-76
2022/01/27 09:29:03;;;;;;;73.45;25.27;;;;;;;4.23;100.00;102124.75;5008652;28;20029;-76
2022/01/27 09:31:29;;;;;;;65.68;24.90;;;;;;;4.26;100.00;102129.72;5021134;28;20483;-77
2022/01/27 09:33:54;;;;;;;69.82;24.15;;;;;;;4.26;100.00;102134.88;5010610;28;20075;-77
2022/01/27 09:36:20;;;;;;;83.30;26.83;;;;;;;4.36;100.00;102124.94;5007143;28;20040;-77
2022/01/27 09:38:45;;;;;;;70.45;23.63;;;;;;;4.37;100.00;102124.84;5029605;28;20029;-77
2022/01/27 09:41:18;;;;;;;68.25;26.23;;;;;;;4.34;100.00;102137.84;5008978;28;20044;-77
2022/01/27 09:43:44;;;;;;;66.80;23.77;;;;;;;4.38;100.00;102138.50;5026955;28;20034;-78
2022/01/27 09:46:11;;;;;;;68.03;25.77;;;;;;;4.34;100.00;102145.53;5024492;28;20119;-76
2022/01/27 09:48:41;;;;;;;74.55;25.75;;;;;;;4.39;100.00;102135.00;5025193;28;21390;-77
2022/01/27 09:53:52;;;;;;;68.30;23.92;;;;;;;4.39;100.00;102135.88;5026979;28;20041;-78
2022/01/27 09:56:18;;;;;;;67.28;25.17;;;;;;;4.46;100.00;102131.19;5028768;28;20126;-77
2022/01/27 09:58:44;;;;;;;64.13;24.13;;;;;;;4.44;100.00;102133.84;5015215;28;20033;-77
2022/01/27 10:01:09;;;;;;;56.95;21.25;;;;;;;4.45;100.00;102143.22;5027615;28;20037;-76
2022/01/27 10:03:58;;;;;;;57.83;22.05;;;;;;;4.48;100.00;102135.38;5021634;28;20042;-78
2022/01/27 10:06:30;;;;;;;58.80;22.23;;;;;;;4.46;100.00;102129.47;5009191;28;20033;-78
2022/01/27 10:09:19;;;;;;;54.05;21.65;;;;;;;4.45;100.00;102134.69;5024811;28;20123;-77
2022/01/27 10:11:48;;;;;;;58.72;20.80;;;;;;;4.54;100.00;102123.06;5025194;28;20037;-77
2022/01/27 10:14:26;;;;;;;54.95;20.33;;;;;;;4.57;100.00;102125.47;5025120;28;20041;-77
2022/01/27 10:16:55;;;;;;;49.35;19.10;;;;;;;4.71;100.00;102122.16;5006454;28;20037;-78
2022/01/27 10:19:22;;;;;;;45.03;19.33;;;;;;;4.72;100.00;102124.63;5024051;28;20030;-77
2022/01/27 10:21:48;;;;;;;48.40;18.27;;;;;;;4.72;100.00;102118.66;5007638;28;20029;-78
2022/01/27 10:24:27;;;;;;;51.20;20.65;;;;;;;4.72;100.00;102123.81;5028387;28;20030;-78
2022/01/27 10:27:16;;;;;;;46.15;19.80;;;;;;;4.77;100.00;102125.22;5022299;28;20037;-78
2022/01/27 10:32:23;;;;;;;55.58;19.27;;;;;;;4.73;100.00;102126.31;5025788;28;20630;-77
2022/01/27 10:35:16;;;;;;;42.83;18.73;;;;;;;4.75;100.00;102123.66;5029137;28;20022;-76
2022/01/27 10:37:53;;;;;;;43.17;17.88;;;;;;;4.82;100.00;102133.50;5021706;28;20045;-75
2022/01/27 10:40:24;;;;;;;44.00;17.25;;;;;;;4.94;100.00;102128.59;5010544;28;20102;-77
2022/01/27 10:43:05;;;;;;;43.75;18.05;;;;;;;4.79;100.00;102125.94;5022818;28;20373;-76
2022/01/27 10:45:31;;;;;;;39.00;17.70;;;;;;;4.86;100.00;102118.75;5039728;28;20034;-77
2022/01/27 10:48:14;;;;;;;48.35;18.70;;;;;;;4.84;100.00;102131.66;5022788;28;20033;-78
2022/01/27 10:50:47;;;;;;;50.40;18.30;;;;;;;4.95;100.00;102115.63;5023982;28;20542;-76
2022/01/27 10:53:13;;;;;;;44.17;19.05;;;;;;;4.91;100.00;102126.19;5027046;28;20060;-77
2022/01/27 10:55:39;;;;;;;41.83;18.63;;;;;;;4.99;100.00;102113.69;5027928;28;20037;-78
2022/01/27 10:58:24;;;;;;;38.67;17.02;;;;;;;5.07;100.00;102121.81;5022468;28;20042;-77
2022/01/27 11:00:56;;;;;;;37.13;16.42;;;;;;;5.05;100.00;102115.94;5023058;28;20033;-78
2022/01/27 11:03:22;;;;;;;43.40;17.42;;;;;;;5.09;100.00;102119.19;5007262;28;20030;-78
2022/01/27 11:05:50;;;;;;;39.92;17.17;;;;;;;5.08;100.00;102108.03;5010785;28;20563;-78
2022/01/27 11:08:19;;;;;;;41.08;17.88;;;;;;;5.07;100.00;102098.69;5019471;28;20074;-78
2022/01/27 11:10:48;;;;;;;42.00;17.30;;;;;;;5.24;100.00;102108.00;5008966;28;20033;-78
2022/01/27 11:13:15;;;;;;;36.35;17.05;;;;;;;5.23;100.00;102111.47;5022692;28;20432;-77
2022/01/27 11:15:42;;;;;;;37.35;15.80;;;;;;;5.25;100.00;102101.91;5027641;28;20041;-77
2022/01/27 11:18:08;;;;;;;36.50;15.35;;;;;;;5.15;100.00;102103.38;5026688;28;20033;-77
2022/01/27 11:20:51;;;;;;;39.80;16.42;;;;;;;5.11;100.00;102100.16;5022396;28;20408;-76
2022/01/27 11:25:54;;;;;;;34.47;15.95;;;;;;;5.25;100.00;102097.63;5027951;28;20045;-78
2022/01/27 11:28:24;;;;;;;33.92;16.05;;;;;;;5.21;100.00;102096.13;5020591;28;20064;-77
2022/01/27 11:30:59;;;;;;;38.90;16.25;;;;;;;5.17;100.00;102092.09;5026001;28;20043;-76
2022/01/27 11:33:32;;;;;;;43.53;16.27;;;;;;;5.15;100.00;102099.06;5006489;28;20038;-76
2022/01/27 11:36:08;;;;;;;37.35;16.15;;;;;;;5.12;100.00;102082.97;5026346;28;20029;-76
2022/01/27 11:38:34;;;;;;;38.63;17.65;;;;;;;5.17;100.00;102078.41;5024106;28;20482;-77
2022/01/27 11:40:59;;;;;;;40.97;16.75;;;;;;;5.15;100.00;102085.38;5022880;28;20044;-78
2022/01/27 11:43:35;;;;;;;36.65;16.88;;;;;;;5.07;100.00;102075.53;5010289;28;20091;-77
2022/01/27 11:46:15;;;;;;;40.20;16.65;;;;;;;5.03;100.00;102079.22;5041522;28;20052;-76
2022/01/27 11:48:40;;;;;;;41.60;18.25;;;;;;;5.15;100.00;102073.34;5003733;28;20061;-76
2022/01/27 11:51:08;;;;;;;42.10;18.08;;;;;;;5.13;100.00;102062.31;5028775;28;20056;-76
2022/01/27 11:53:48;;;;;;;41.78;17.42;;;;;;;5.16;100.00;102059.59;5030545;28;20048;-80
2022/01/27 11:56:23;;;;;;;41.22;17.55;;;;;;;5.17;100.00;102062.97;5025999;28;20037;-77
2022/01/27 11:58:52;;;;;;;39.92;19.48;;;;;;;5.23;100.00;102062.59;5028911;28;20069;-77
2022/01/27 12:01:31;;;;;;;37.35;17.23;;;;;;;5.16;100.00;102064.72;5025501;28;20022;-77
2022/01/27 12:04:04;;;;;;;37.80;17.42;;;;;;;5.25;100.00;102055.63;5028869;28;20532;-77
2022/01/27 12:06:34;;;;;;;46.28;17.55;;;;;;;5.25;100.00;102055.63;5026223;28;20059;-78
2022/01/27 12:09:20;;;;;;;41.65;16.35;;;;;;;5.16;100.00;102054.44;5029446;28;20042;-77
2022/01/27 12:11:49;;;;;;;36.58;15.95;;;;;;;5.20;100.00;102066.19;5042853;28;20017;-78